createdAt,value
2019-04-01T00:58:31.524Z,3.50
2019-04-01T01:01:19.846Z,3.50
2019-04-01T01:04:07.893Z,3.50
2019-04-01T01:59:04.709Z,3.10
2019-04-01T02:01:53.039Z,3.10
2019-04-01T02:04:41.272Z,3.10
2019-04-01T03:45:57.245Z,2.40
2019-04-01T03:48:43.839Z,2.40
2019-04-01T03:51:31.909Z,2.40
2019-04-01T05:27:15.899Z,2.10
2019-04-01T05:30:03.149Z,2.00
2019-04-01T05:32:50.479Z,2.10
2019-04-01T05:35:37.835Z,2.10
2019-04-01T05:38:24.403Z,2.20
2019-04-01T05:41:11.802Z,2.10
2019-04-01T05:43:58.272Z,2.20
2019-04-01T05:46:42.794Z,2.40
2019-04-01T08:14:50.968Z,5.60
2019-04-01T08:17:39.116Z,5.70
2019-04-01T10:57:37.012Z,10.90
2019-04-01T11:00:25.299Z,11.00
2019-04-01T11:03:13.517Z,11.10
2019-04-01T12:31:52.339Z,12.90
2019-04-01T16:10:35.483Z,14.40
2019-04-01T16:13:22.853Z,14.40
2019-04-01T16:16:14.156Z,14.40
2019-04-01T16:19:00.133Z,14.40
2019-04-01T16:21:47.819Z,14.40
2019-04-01T16:24:35.237Z,14.40
2019-04-01T16:27:21.916Z,14.40
2019-04-01T16:30:09.237Z,14.40
2019-04-01T16:32:55.804Z,14.30
2019-04-01T16:35:43.164Z,14.30
2019-04-01T16:38:30.501Z,14.30
2019-04-01T16:41:17.938Z,14.30
2019-04-01T16:44:04.377Z,14.20
2019-04-01T16:46:50.833Z,14.20
2019-04-01T16:49:37.913Z,14.10
2019-04-01T16:52:24.452Z,14.10
2019-04-01T16:55:11.457Z,14.00
2019-04-01T17:00:54.801Z,14.00
2019-04-01T17:03:42.017Z,14.00
2019-04-01T17:09:28.085Z,13.90
2019-04-01T17:12:14.619Z,13.80
2019-04-01T17:15:03.478Z,13.80
2019-04-01T17:17:50.205Z,13.70
2019-04-01T17:20:37.307Z,13.70
2019-04-01T17:23:28.054Z,13.60
2019-04-01T17:26:12.951Z,13.50
2019-04-01T17:29:00.893Z,13.40
2019-04-01T17:31:47.935Z,13.40
2019-04-01T17:34:35.016Z,13.20
2019-04-01T17:37:21.586Z,13.20
2019-04-01T17:40:09.093Z,13.10
2019-04-01T17:42:56.483Z,12.90
2019-04-01T17:45:43.014Z,12.80
2019-04-01T17:48:29.556Z,12.60
2019-04-01T17:51:16.883Z,12.50
2019-04-01T17:54:03.582Z,12.40
2019-04-01T17:56:50.756Z,12.30
2019-04-01T17:59:37.348Z,12.20
2019-04-01T18:02:24.740Z,12.10
2019-04-01T18:05:11.215Z,11.90
2019-04-01T18:07:58.550Z,11.80
2019-04-01T18:10:48.595Z,11.70
2019-04-01T18:13:36.775Z,11.60
2019-04-01T18:16:23.498Z,11.50
2019-04-01T18:19:09.968Z,11.40
2019-04-01T18:24:46.619Z,11.20
2019-04-01T18:27:33.878Z,11.10
2019-04-01T18:30:21.268Z,11.10
2019-04-01T18:33:08.781Z,11.00
2019-04-01T18:35:55.348Z,10.90
2019-04-01T18:38:42.687Z,10.80
2019-04-01T18:41:29.856Z,10.70
2019-04-01T18:44:18.586Z,10.70
2019-04-01T18:47:04.598Z,10.60
2019-04-01T18:49:51.029Z,10.60
2019-04-01T18:52:38.354Z,10.50
2019-04-01T19:00:59.308Z,10.50
2019-04-01T19:03:45.004Z,10.40
2019-04-01T21:03:30.100Z,8.60
2019-04-01T21:06:18.399Z,8.60
2019-04-01T21:36:36.222Z,8.20
2019-04-01T21:39:25.513Z,8.20
